createdAt,value
2023-02-07T00:00:43.025Z,1.98
2023-02-07T00:01:43.022Z,1.84
2023-02-07T00:02:43.022Z,1.98
2023-02-07T00:03:43.018Z,1.85
2023-02-07T00:04:42.990Z,1.95
2023-02-07T00:05:42.971Z,1.86
2023-02-07T00:06:42.974Z,2.00
2023-02-07T00:07:42.963Z,1.86
2023-02-07T00:08:42.939Z,1.97
2023-02-07T00:09:42.952Z,1.97
2023-02-07T00:10:42.919Z,1.98
2023-02-07T00:11:42.937Z,1.79
2023-02-07T00:12:42.882Z,1.81
2023-02-07T00:13:42.899Z,1.97
2023-02-07T00:14:42.894Z,1.93
2023-02-07T00:15:42.843Z,1.89
2023-02-07T00:16:42.919Z,1.93
2023-02-07T00:17:42.838Z,1.86
2023-02-07T00:18:42.833Z,1.89
2023-02-07T00:19:42.835Z,1.97
2023-02-07T00:20:42.831Z,2.01
2023-02-07T00:21:42.789Z,1.92
2023-02-07T00:22:42.785Z,1.98
2023-02-07T00:23:42.813Z,1.92
2023-02-07T00:24:42.747Z,1.98
2023-02-07T00:25:42.770Z,1.92
2023-02-07T00:27:14.687Z,1.95
2023-02-07T00:27:42.746Z,1.98
2023-02-07T00:28:42.768Z,1.93
2023-02-07T00:29:42.716Z,1.88
2023-02-07T00:30:42.778Z,1.98
2023-02-07T00:31:42.765Z,1.85
2023-02-07T00:32:42.692Z,1.95
2023-02-07T00:33:42.694Z,1.92
2023-02-07T00:34:42.689Z,1.95
2023-02-07T00:35:42.670Z,1.85
2023-02-07T00:36:42.663Z,1.85
2023-02-07T00:37:42.655Z,1.81
2023-02-07T00:38:42.643Z,1.85
2023-02-07T00:39:42.621Z,1.89
2023-02-07T00:40:42.606Z,1.86
2023-02-07T00:41:42.599Z,1.95
2023-02-07T00:42:42.597Z,1.79
2023-02-07T00:43:42.591Z,1.71
2023-02-07T00:44:42.605Z,1.74
2023-02-07T00:45:42.578Z,1.82
2023-02-07T00:46:42.548Z,1.81
2023-02-07T00:47:42.546Z,1.76
2023-02-07T00:48:42.549Z,1.76
2023-02-07T00:49:42.512Z,1.74
2023-02-07T00:50:42.507Z,1.68
2023-02-07T00:51:42.522Z,1.67
2023-02-07T00:52:42.485Z,1.71
2023-02-07T00:53:42.470Z,1.67
2023-02-07T00:54:42.469Z,1.60
2023-02-07T00:55:42.457Z,1.63
2023-02-07T00:56:42.452Z,1.52
2023-02-07T00:57:42.450Z,1.57
2023-02-07T00:58:42.449Z,1.46
2023-02-07T00:59:42.410Z,1.52
2023-02-07T01:00:42.401Z,1.39
2023-02-07T01:01:42.400Z,1.48
2023-02-07T01:02:42.384Z,1.38
2023-02-07T01:03:42.378Z,1.34
2023-02-07T01:04:42.405Z,1.36
2023-02-07T01:05:42.355Z,1.32
2023-02-07T01:06:42.353Z,1.20
2023-02-07T01:07:42.342Z,1.21
2023-02-07T01:08:42.347Z,1.20
2023-02-07T01:09:42.317Z,1.13
2023-02-07T01:10:42.292Z,1.09
2023-02-07T01:11:42.306Z,1.07
2023-02-07T01:12:42.277Z,0.99
2023-02-07T01:13:42.272Z,0.95
2023-02-07T01:14:42.269Z,0.81
2023-02-07T01:15:42.276Z,0.78
2023-02-07T01:16:42.244Z,0.81
2023-02-07T01:17:42.228Z,0.70
2023-02-07T01:18:42.243Z,0.76
2023-02-07T01:19:42.204Z,0.63
2023-02-07T01:20:42.213Z,0.59
2023-02-07T01:21:42.190Z,0.55
2023-02-07T01:22:42.189Z,0.33
2023-02-07T01:23:42.172Z,0.34
2023-02-07T01:24:42.156Z,0.39
2023-02-07T01:25:42.145Z,0.36
2023-02-07T01:26:42.129Z,0.37
2023-02-07T01:27:42.140Z,0.23
2023-02-07T01:28:42.112Z,0.18
2023-02-07T01:29:42.101Z,0.11
2023-02-07T01:30:42.161Z,0.11
2023-02-07T01:31:42.212Z,0.05
2023-02-07T01:32:42.074Z,-0.05
2023-02-07T01:33:42.075Z,-0.10
2023-02-07T01:34:42.078Z,-0.12
2023-02-07T01:35:42.036Z,-0.12
2023-02-07T01:36:42.021Z,-0.15
2023-02-07T01:37:42.021Z,-0.15
2023-02-07T01:38:42.014Z,-0.18
2023-02-07T01:39:42.027Z,-0.17
2023-02-07T01:40:41.981Z,-0.12
2023-02-07T01:41:41.973Z,-0.33
2023-02-07T01:42:41.980Z,-0.28
2023-02-07T01:43:41.964Z,-0.44
2023-02-07T01:44:41.952Z,-0.45
2023-02-07T01:45:41.933Z,-0.45
2023-02-07T01:46:42.913Z,-0.42
2023-02-07T01:47:41.917Z,-0.41
2023-02-07T01:48:41.927Z,-0.45
2023-02-07T01:49:41.890Z,-0.54
2023-02-07T01:50:41.874Z,-0.38
2023-02-07T01:51:41.867Z,-0.42
2023-02-07T01:52:41.856Z,-0.59
2023-02-07T01:53:41.881Z,-0.46
2023-02-07T01:54:41.840Z,-0.49
2023-02-07T01:55:41.822Z,-0.54
2023-02-07T01:56:41.814Z,-0.59
2023-02-07T01:57:41.812Z,-0.67
2023-02-07T01:58:41.815Z,-0.62
2023-02-07T01:59:41.778Z,-0.64
2023-02-07T02:00:41.779Z,-0.69
2023-02-07T02:01:41.794Z,-0.66
2023-02-07T02:02:41.797Z,-0.64
2023-02-07T02:03:41.761Z,-0.69
2023-02-07T02:04:41.735Z,-0.67
2023-02-07T02:05:41.724Z,-0.72
2023-02-07T02:06:41.734Z,-0.84
2023-02-07T02:07:41.706Z,-0.81
2023-02-07T02:08:41.713Z,-0.70
2023-02-07T02:09:41.689Z,-0.87
2023-02-07T02:10:41.671Z,-0.81
2023-02-07T02:11:41.666Z,-0.97
2023-02-07T02:12:41.651Z,-0.84
2023-02-07T02:13:41.640Z,-0.85
2023-02-07T02:14:41.638Z,-0.87
2023-02-07T02:15:41.965Z,-1.00
2023-02-07T02:16:41.593Z,-0.81
2023-02-07T02:17:41.591Z,-0.99
2023-02-07T02:18:41.590Z,-0.94
2023-02-07T02:19:41.580Z,-1.00
2023-02-07T02:20:41.571Z,-1.04
2023-02-07T02:21:41.552Z,-1.01
2023-02-07T02:22:41.552Z,-1.06
2023-02-07T02:23:41.522Z,-0.99
2023-02-07T02:24:41.532Z,-1.09
2023-02-07T02:25:41.503Z,-1.17
2023-02-07T02:26:41.497Z,-1.15
2023-02-07T02:27:41.490Z,-1.19
2023-02-07T02:28:41.479Z,-1.15
2023-02-07T02:29:41.469Z,-1.33
2023-02-07T02:30:41.474Z,-1.36
2023-02-07T02:31:41.466Z,-1.38
2023-02-07T02:32:41.436Z,-1.39
2023-02-07T02:33:41.418Z,-1.53
2023-02-07T02:34:41.412Z,-1.48
2023-02-07T02:35:41.403Z,-1.51
2023-02-07T02:36:41.400Z,-1.64
2023-02-07T02:37:41.376Z,-1.68
2023-02-07T02:38:41.378Z,-1.68
2023-02-07T02:39:41.362Z,-1.79
2023-02-07T02:40:41.354Z,-1.81
2023-02-07T02:41:41.354Z,-1.86
2023-02-07T02:42:41.325Z,-1.82
2023-02-07T02:43:41.308Z,-1.86
2023-02-07T02:44:41.304Z,-1.97
2023-02-07T02:45:41.304Z,-1.92
2023-02-07T02:46:41.339Z,-2.08
2023-02-07T02:47:41.283Z,-2.08
2023-02-07T02:48:41.273Z,-2.04
2023-02-07T02:49:41.266Z,-2.02
2023-02-07T02:50:41.246Z,-2.13
2023-02-07T02:51:41.254Z,-2.07
2023-02-07T02:52:50.686Z,-2.15
2023-02-07T02:53:43.201Z,-2.17
2023-02-07T02:54:41.192Z,-2.51
2023-02-07T02:55:41.186Z,-2.65
2023-02-07T02:56:41.217Z,-2.47
2023-02-07T02:57:41.161Z,-2.42
2023-02-07T02:58:41.151Z,-2.36
2023-02-07T02:59:41.136Z,-2.37
2023-02-07T03:00:41.131Z,-2.47
2023-02-07T03:01:41.218Z,-2.25
2023-02-07T03:02:41.120Z,-2.25
2023-02-07T03:03:41.121Z,-2.36
2023-02-07T03:04:41.100Z,-2.36
2023-02-07T03:05:41.074Z,-2.28
2023-02-07T03:06:41.081Z,-2.22
2023-02-07T03:07:41.071Z,-2.13
2023-02-07T03:08:41.070Z,-2.07
2023-02-07T03:09:41.039Z,-2.17
2023-02-07T03:10:41.031Z,-2.14
2023-02-07T03:11:41.018Z,-2.18
2023-02-07T03:12:41.018Z,-2.13
2023-02-07T03:13:40.996Z,-2.17
2023-02-07T03:14:40.982Z,-2.11
2023-02-07T03:15:40.985Z,-2.28
2023-02-07T03:16:40.969Z,-2.18
2023-02-07T03:17:40.964Z,-2.26
2023-02-07T03:18:40.971Z,-2.18
2023-02-07T03:19:40.937Z,-2.39
2023-02-07T03:20:40.925Z,-2.42
2023-02-07T03:21:40.913Z,-2.54
2023-02-07T03:22:40.905Z,-2.69
2023-02-07T03:23:40.901Z,-2.51
2023-02-07T03:24:40.882Z,-2.39
2023-02-07T03:25:40.953Z,-2.39
2023-02-07T03:26:40.869Z,-2.26
2023-02-07T03:27:40.852Z,-2.23
2023-02-07T03:28:40.859Z,-2.26
2023-02-07T03:29:40.838Z,-2.34
2023-02-07T03:30:40.897Z,-2.29
2023-02-07T03:31:40.875Z,-2.40
2023-02-07T03:32:40.798Z,-2.33
2023-02-07T03:33:40.797Z,-2.39
2023-02-07T03:34:40.788Z,-2.40
2023-02-07T03:35:40.835Z,-2.42
2023-02-07T03:36:40.755Z,-2.44
2023-02-07T03:37:40.766Z,-2.37
2023-02-07T03:38:40.761Z,-2.44
2023-02-07T03:39:40.740Z,-2.39
2023-02-07T03:40:40.732Z,-2.57
2023-02-07T03:41:40.712Z,-2.62
2023-02-07T03:42:40.704Z,-2.48
2023-02-07T03:43:40.688Z,-2.54
2023-02-07T03:44:40.697Z,-2.51
2023-02-07T03:45:40.772Z,-2.54
2023-02-07T03:46:40.756Z,-2.51
2023-02-07T03:47:40.657Z,-2.55
2023-02-07T03:48:40.638Z,-2.51
2023-02-07T03:49:40.650Z,-2.58
2023-02-07T03:50:40.632Z,-2.40
2023-02-07T03:51:40.603Z,-2.51
2023-02-07T03:52:40.601Z,-2.54
2023-02-07T03:53:40.593Z,-2.52
2023-02-07T03:54:40.574Z,-2.54
2023-02-07T03:55:40.837Z,-2.63
2023-02-07T03:56:40.582Z,-2.51
2023-02-07T03:57:40.546Z,-2.63
2023-02-07T03:58:40.541Z,-2.51
2023-02-07T03:59:40.550Z,-2.52
2023-02-07T04:00:40.534Z,-2.39
2023-02-07T04:01:40.520Z,-2.45
2023-02-07T04:02:40.538Z,-2.40
2023-02-07T04:03:40.514Z,-2.37
2023-02-07T04:04:40.478Z,-2.32
2023-02-07T04:05:40.608Z,-2.39
2023-02-07T04:06:40.468Z,-2.47
2023-02-07T04:07:40.457Z,-2.50
2023-02-07T04:08:40.457Z,-2.52
2023-02-07T04:09:40.424Z,-2.55
2023-02-07T04:10:40.416Z,-2.51
2023-02-07T04:11:40.406Z,-2.57
2023-02-07T04:12:40.412Z,-2.58
2023-02-07T04:13:40.402Z,-2.55
2023-02-07T04:14:40.397Z,-2.72
2023-02-07T04:15:40.591Z,-2.78
2023-02-07T04:16:40.505Z,-2.81
2023-02-07T04:17:40.363Z,-2.87
2023-02-07T04:18:40.329Z,-2.89
2023-02-07T04:19:40.349Z,-3.05
2023-02-07T04:20:40.325Z,-3.04
2023-02-07T04:21:40.302Z,-2.91
2023-02-07T04:22:40.310Z,-2.94
2023-02-07T04:23:40.295Z,-3.08
2023-02-07T04:24:40.291Z,-3.22
2023-02-07T04:25:40.409Z,-3.01
2023-02-07T04:26:40.262Z,-3.11
2023-02-07T04:27:40.239Z,-2.94
2023-02-07T04:28:40.245Z,-2.98
2023-02-07T04:29:40.251Z,-2.87
2023-02-07T04:30:40.246Z,-2.81
2023-02-07T04:31:40.249Z,-2.75
2023-02-07T04:32:40.197Z,-2.87
2023-02-07T04:33:40.185Z,-2.81
2023-02-07T04:34:40.197Z,-2.76
2023-02-07T04:35:40.171Z,-2.69
2023-02-07T04:36:40.182Z,-2.84
2023-02-07T04:37:40.149Z,-2.70
2023-02-07T04:38:40.144Z,-2.76
2023-02-07T04:39:40.137Z,-2.81
2023-02-07T04:40:40.150Z,-2.75
2023-02-07T04:41:40.114Z,-2.81
2023-02-07T04:42:40.101Z,-2.62
2023-02-07T04:43:40.110Z,-2.72
2023-02-07T04:44:40.101Z,-2.68
2023-02-07T04:45:40.401Z,-2.68
2023-02-07T04:46:40.064Z,-2.73
2023-02-07T04:47:40.040Z,-2.84
2023-02-07T04:48:40.051Z,-2.81
2023-02-07T04:49:40.040Z,-2.75
2023-02-07T04:50:40.026Z,-2.87
2023-02-07T04:51:40.001Z,-2.83
2023-02-07T04:52:40.007Z,-2.75
2023-02-07T04:53:39.990Z,-2.76
2023-02-07T04:54:39.982Z,-2.76
2023-02-07T04:55:40.207Z,-2.69
2023-02-07T04:56:39.960Z,-2.66
2023-02-07T04:57:39.944Z,-2.75
2023-02-07T04:58:39.939Z,-2.78
2023-02-07T04:59:39.927Z,-2.81
2023-02-07T05:00:39.944Z,-2.83
2023-02-07T05:01:39.929Z,-2.83
2023-02-07T05:02:39.900Z,-2.86
2023-02-07T05:03:39.889Z,-2.86
2023-02-07T05:04:39.957Z,-2.94
2023-02-07T05:05:40.105Z,-2.93
2023-02-07T05:06:39.866Z,-2.90
2023-02-07T05:07:39.848Z,-2.98
2023-02-07T05:08:39.864Z,-3.09
2023-02-07T05:09:39.839Z,-3.01
2023-02-07T05:10:39.853Z,-3.05
2023-02-07T05:11:39.816Z,-3.07
2023-02-07T05:12:39.812Z,-3.07
2023-02-07T05:13:39.803Z,-3.09
2023-02-07T05:14:39.804Z,-3.09
2023-02-07T05:15:40.073Z,-2.99
2023-02-07T05:16:39.828Z,-2.98
2023-02-07T05:17:39.761Z,-2.96
2023-02-07T05:18:39.743Z,-2.91
2023-02-07T05:19:39.753Z,-3.01
2023-02-07T05:20:39.723Z,-2.98
2023-02-07T05:21:39.717Z,-3.01
2023-02-07T05:22:39.713Z,-3.04
2023-02-07T05:23:39.686Z,-2.98
2023-02-07T05:24:39.697Z,-3.04
2023-02-07T05:25:39.940Z,-3.14
2023-02-07T05:26:40.499Z,-2.98
2023-02-07T05:27:40.656Z,-2.98
2023-02-07T05:28:39.665Z,-2.91
2023-02-07T05:29:39.648Z,-3.04
2023-02-07T05:30:39.720Z,-2.96
2023-02-07T05:31:39.725Z,-3.09
2023-02-07T05:32:39.609Z,-3.02
2023-02-07T05:33:39.583Z,-3.02
2023-02-07T05:34:40.599Z,-3.04
2023-02-07T05:35:39.879Z,-3.11
2023-02-07T05:36:39.557Z,-3.01
2023-02-07T05:37:39.574Z,-3.02
2023-02-07T05:38:39.555Z,-3.19
2023-02-07T05:39:39.550Z,-3.11
2023-02-07T05:40:39.519Z,-3.09
2023-02-07T05:41:39.523Z,-3.15
2023-02-07T05:42:39.527Z,-3.12
2023-02-07T05:43:39.485Z,-3.08
2023-02-07T05:44:39.489Z,-3.12
2023-02-07T05:45:39.825Z,-3.11
2023-02-07T05:46:39.465Z,-2.94
2023-02-07T05:47:39.491Z,-2.98
2023-02-07T05:48:39.447Z,-3.05
2023-02-07T05:49:39.430Z,-2.98
2023-02-07T05:50:39.434Z,-3.01
2023-02-07T05:51:39.434Z,-2.93
2023-02-07T05:52:39.421Z,-3.04
2023-02-07T05:53:39.386Z,-3.01
2023-02-07T05:54:39.388Z,-3.02
2023-02-07T05:55:39.688Z,-2.99
2023-02-07T05:56:39.384Z,-3.04
2023-02-07T05:57:39.369Z,-2.89
2023-02-07T05:58:39.341Z,-2.91
2023-02-07T05:59:39.355Z,-2.96
2023-02-07T06:00:39.329Z,-2.93
2023-02-07T06:01:39.333Z,-2.93
2023-02-07T06:02:39.324Z,-2.99
2023-02-07T06:03:39.358Z,-3.02
2023-02-07T06:04:39.281Z,-3.02
2023-02-07T06:05:39.630Z,-2.99
2023-02-07T06:06:39.277Z,-2.99
2023-02-07T06:07:39.267Z,-3.08
2023-02-07T06:08:39.246Z,-3.01
2023-02-07T06:09:39.258Z,-3.08
2023-02-07T06:10:39.222Z,-2.99
2023-02-07T06:11:39.209Z,-3.02
2023-02-07T06:12:39.227Z,-3.09
2023-02-07T06:13:39.195Z,-3.17
2023-02-07T06:14:39.201Z,-3.09
2023-02-07T06:15:39.496Z,-3.25
2023-02-07T06:16:39.165Z,-3.20
2023-02-07T06:17:39.160Z,-3.22
2023-02-07T06:18:39.160Z,-3.15
2023-02-07T06:19:39.143Z,-3.23
2023-02-07T06:20:39.127Z,-3.20
2023-02-07T06:21:46.532Z,-3.29
2023-02-07T06:22:41.113Z,-3.27
2023-02-07T06:23:39.098Z,-3.36
2023-02-07T06:24:39.100Z,-3.29
2023-02-07T06:25:39.341Z,-3.26
2023-02-07T06:26:39.080Z,-3.26
2023-02-07T06:27:39.056Z,-3.38
2023-02-07T06:28:39.053Z,-3.29
2023-02-07T06:29:39.058Z,-3.43
2023-02-07T06:30:39.082Z,-3.37
2023-02-07T06:31:39.077Z,-3.37
2023-02-07T06:32:39.061Z,-3.56
2023-02-07T06:33:39.001Z,-3.51
2023-02-07T06:34:39.032Z,-3.55
2023-02-07T06:35:39.281Z,-3.44
2023-02-07T06:36:38.972Z,-3.40
2023-02-07T06:37:38.959Z,-3.41
2023-02-07T06:38:38.945Z,-3.59
2023-02-07T06:39:38.969Z,-3.66
2023-02-07T06:40:38.940Z,-3.83
2023-02-07T06:41:38.925Z,-3.81
2023-02-07T06:42:38.925Z,-3.83
2023-02-07T06:43:38.908Z,-3.71
2023-02-07T06:44:38.894Z,-3.61
2023-02-07T06:45:39.127Z,-3.59
2023-02-07T06:46:38.925Z,-3.66
2023-02-07T06:47:38.865Z,-3.69
2023-02-07T06:48:38.874Z,-3.68
2023-02-07T06:49:38.855Z,-3.84
2023-02-07T06:50:38.828Z,-3.81
2023-02-07T06:51:38.842Z,-3.84
2023-02-07T06:52:38.809Z,-3.87
2023-02-07T06:53:38.805Z,-3.85
2023-02-07T06:54:38.795Z,-3.78
2023-02-07T06:55:39.113Z,-3.71
2023-02-07T06:56:38.797Z,-3.75
2023-02-07T06:57:38.768Z,-3.65
2023-02-07T06:58:38.767Z,-3.74
2023-02-07T06:59:38.749Z,-3.58
2023-02-07T07:00:38.739Z,-3.44
2023-02-07T07:01:38.732Z,-3.59
2023-02-07T07:02:38.779Z,-3.55
2023-02-07T07:03:38.721Z,-3.50
2023-02-07T07:04:38.702Z,-3.46
2023-02-07T07:05:38.962Z,-3.56
2023-02-07T07:06:38.697Z,-3.48
2023-02-07T07:07:38.671Z,-3.40
2023-02-07T07:08:38.666Z,-3.47
2023-02-07T07:09:38.650Z,-3.53
2023-02-07T07:10:38.660Z,-3.62
2023-02-07T07:11:38.658Z,-3.55
2023-02-07T07:12:38.626Z,-3.48
2023-02-07T07:13:38.661Z,-3.43
2023-02-07T07:14:38.613Z,-3.46
2023-02-07T07:15:38.790Z,-3.50
2023-02-07T07:16:38.595Z,-3.62
2023-02-07T07:17:38.563Z,-3.64
2023-02-07T07:18:39.578Z,-3.66
2023-02-07T07:19:38.561Z,-3.56
2023-02-07T07:20:38.545Z,-3.53
2023-02-07T07:21:38.564Z,-3.64
2023-02-07T07:22:38.529Z,-3.68
2023-02-07T07:23:38.507Z,-3.62
2023-02-07T07:24:38.520Z,-3.78
2023-02-07T07:25:38.796Z,-3.66
2023-02-07T07:26:48.772Z,-3.62
2023-02-07T07:27:40.465Z,-3.59
2023-02-07T07:28:38.477Z,-3.46
2023-02-07T07:29:38.452Z,-3.51
2023-02-07T07:30:38.477Z,-3.48
2023-02-07T07:31:38.498Z,-3.32
2023-02-07T07:32:38.424Z,-3.38
2023-02-07T07:33:38.448Z,-3.46
2023-02-07T07:34:38.408Z,-3.23
2023-02-07T07:35:38.799Z,-3.26
2023-02-07T07:36:38.395Z,-3.20
2023-02-07T07:37:38.360Z,-3.17
2023-02-07T07:38:38.728Z,-3.14
2023-02-07T07:39:38.350Z,-3.11
2023-02-07T07:40:38.623Z,-3.11
2023-02-07T07:41:38.335Z,-3.01
2023-02-07T07:42:38.336Z,-2.99
2023-02-07T07:43:38.311Z,-2.94
2023-02-07T07:44:38.673Z,-2.93
2023-02-07T07:45:38.332Z,-2.87
2023-02-07T07:46:38.379Z,-2.81
2023-02-07T07:47:38.262Z,-2.89
2023-02-07T07:48:38.280Z,-2.86
2023-02-07T07:49:38.241Z,-2.89
2023-02-07T07:50:38.572Z,-2.83
2023-02-07T07:51:38.238Z,-2.91
2023-02-07T07:52:38.218Z,-2.84
2023-02-07T07:53:38.200Z,-2.75
2023-02-07T07:54:38.194Z,-2.68
2023-02-07T07:55:38.189Z,-2.57
2023-02-07T07:56:38.188Z,-2.57
2023-02-07T07:57:38.202Z,-2.47
2023-02-07T07:58:38.162Z,-2.51
2023-02-07T07:59:38.158Z,-2.58
2023-02-07T08:00:38.387Z,-2.62
2023-02-07T08:01:38.121Z,-2.51
2023-02-07T08:02:38.111Z,-2.39
2023-02-07T08:03:38.114Z,-2.26
2023-02-07T08:04:38.110Z,-2.15
2023-02-07T08:05:38.076Z,-2.08
2023-02-07T08:06:38.082Z,-2.00
2023-02-07T08:07:38.065Z,-1.87
2023-02-07T08:08:38.053Z,-1.76
2023-02-07T08:09:38.043Z,-1.90
2023-02-07T08:10:38.323Z,-1.75
2023-02-07T08:11:38.024Z,-1.76
2023-02-07T08:12:38.054Z,-1.68
2023-02-07T08:13:38.019Z,-1.71
2023-02-07T08:14:39.030Z,-1.61
2023-02-07T08:15:37.982Z,-1.51
2023-02-07T08:16:38.036Z,-1.45
2023-02-07T08:17:37.950Z,-1.42
2023-02-07T08:18:37.983Z,-1.42
2023-02-07T08:19:37.928Z,-1.36
2023-02-07T08:20:38.309Z,-1.36
2023-02-07T08:21:37.941Z,-1.32
2023-02-07T08:22:37.909Z,-1.29
2023-02-07T08:23:37.900Z,-1.19
2023-02-07T08:24:37.899Z,-1.15
2023-02-07T08:25:37.884Z,-1.19
2023-02-07T08:26:37.875Z,-1.11
2023-02-07T08:27:37.868Z,-1.03
2023-02-07T08:28:37.842Z,-1.03
2023-02-07T08:29:37.840Z,-0.96
2023-02-07T08:30:38.284Z,-0.93
2023-02-07T08:31:38.839Z,-0.91
2023-02-07T08:32:37.827Z,-0.85
2023-02-07T08:33:37.812Z,-0.84
2023-02-07T08:34:37.835Z,-0.74
2023-02-07T08:35:37.785Z,-0.77
2023-02-07T08:36:37.764Z,-0.70
2023-02-07T08:37:37.871Z,-0.60
2023-02-07T08:38:37.757Z,-0.63
2023-02-07T08:39:37.748Z,-0.64
2023-02-07T08:40:37.947Z,-0.56
2023-02-07T08:41:37.707Z,-0.59
2023-02-07T08:42:37.695Z,-0.56
2023-02-07T08:43:37.701Z,-0.53
2023-02-07T08:44:37.702Z,-0.49
2023-02-07T08:45:37.768Z,-0.39
2023-02-07T08:46:37.742Z,-0.30
2023-02-07T08:47:37.677Z,-0.31
2023-02-07T08:48:37.629Z,-0.35
2023-02-07T08:49:37.635Z,-0.35
2023-02-07T08:50:38.006Z,-0.13
2023-02-07T08:51:37.620Z,-0.09
2023-02-07T08:52:37.602Z,-0.17
2023-02-07T08:53:37.612Z,-0.02
2023-02-07T08:54:37.582Z,0.02
2023-02-07T08:55:37.562Z,0.11
2023-02-07T08:56:37.582Z,0.12
2023-02-07T08:57:37.552Z,0.08
2023-02-07T08:58:37.539Z,0.06
2023-02-07T08:59:37.545Z,0.24
2023-02-07T09:00:38.126Z,0.19
2023-02-07T09:01:37.507Z,0.31
2023-02-07T09:02:37.497Z,0.27
2023-02-07T09:03:37.482Z,0.26
2023-02-07T09:04:37.500Z,0.23
2023-02-07T09:05:37.448Z,0.36
2023-02-07T09:06:37.478Z,0.37
2023-02-07T09:07:37.476Z,0.18
2023-02-07T09:08:37.426Z,0.20
2023-02-07T09:09:37.441Z,0.27
2023-02-07T09:10:37.869Z,0.34
2023-02-07T09:11:37.497Z,0.45
2023-02-07T09:12:37.388Z,0.47
2023-02-07T09:13:37.381Z,0.47
2023-02-07T09:14:37.384Z,0.55
2023-02-07T09:15:37.360Z,0.66
2023-02-07T09:16:37.389Z,0.49
2023-02-07T09:17:37.344Z,0.68
2023-02-07T09:18:37.329Z,0.67
2023-02-07T09:19:37.320Z,0.55
2023-02-07T09:20:37.699Z,0.51
2023-02-07T09:21:37.321Z,0.49
2023-02-07T09:22:37.281Z,0.48
2023-02-07T09:23:37.290Z,0.26
2023-02-07T09:24:37.272Z,0.33
2023-02-07T09:25:37.263Z,0.48
2023-02-07T09:26:37.243Z,0.61
2023-02-07T09:27:37.346Z,0.56
2023-02-07T09:28:37.235Z,0.68
2023-02-07T09:29:37.215Z,0.68
2023-02-07T09:30:37.289Z,0.89
2023-02-07T09:31:37.368Z,0.96
2023-02-07T09:32:37.183Z,1.06
2023-02-07T09:33:37.209Z,1.06
2023-02-07T09:34:37.169Z,1.13
2023-02-07T09:35:37.148Z,1.24
2023-02-07T09:36:37.146Z,1.21
2023-02-07T09:37:48.688Z,1.32
2023-02-07T09:38:39.132Z,1.31
2023-02-07T09:39:37.121Z,1.24
2023-02-07T09:40:37.469Z,1.31
2023-02-07T09:41:37.082Z,1.43
2023-02-07T09:42:37.073Z,1.49
2023-02-07T09:43:38.780Z,1.34
2023-02-07T09:44:39.170Z,1.42
2023-02-07T09:45:37.071Z,1.42
2023-02-07T09:46:37.051Z,1.49
2023-02-07T09:47:37.018Z,1.39
2023-02-07T09:48:37.034Z,1.25
2023-02-07T09:49:37.021Z,1.00
2023-02-07T09:50:37.668Z,0.78
2023-02-07T09:51:36.976Z,0.74
2023-02-07T09:52:37.004Z,0.81
2023-02-07T09:53:36.959Z,0.85
2023-02-07T09:54:36.955Z,0.95
2023-02-07T09:55:37.365Z,0.85
2023-02-07T09:56:36.946Z,1.00
2023-02-07T09:57:36.957Z,0.94
2023-02-07T09:58:37.317Z,0.99
2023-02-07T09:59:36.909Z,1.20
2023-02-07T10:00:37.376Z,1.30
2023-02-07T10:01:36.941Z,1.24
2023-02-07T10:02:36.893Z,1.32
2023-02-07T10:03:36.895Z,1.38
2023-02-07T10:04:36.856Z,1.60
2023-02-07T10:05:36.838Z,1.76
2023-02-07T10:06:36.831Z,1.86
2023-02-07T10:07:36.822Z,2.00
2023-02-07T10:08:41.255Z,2.10
2023-02-07T10:09:37.807Z,2.21
2023-02-07T10:10:36.869Z,2.07
2023-02-07T10:11:36.847Z,2.12
2023-02-07T10:12:36.757Z,2.19
2023-02-07T10:13:36.761Z,2.21
2023-02-07T10:14:36.762Z,2.23
2023-02-07T10:15:36.782Z,2.37
2023-02-07T10:16:36.759Z,2.40
2023-02-07T10:17:36.734Z,2.58
2023-02-07T10:18:36.689Z,2.65
2023-02-07T10:19:36.689Z,2.70
2023-02-07T10:20:37.089Z,2.72
2023-02-07T10:21:36.677Z,2.85
2023-02-07T10:22:36.705Z,2.85
2023-02-07T10:23:36.674Z,2.95
2023-02-07T10:24:36.678Z,3.03
2023-02-07T10:25:36.668Z,3.01
2023-02-07T10:26:36.653Z,3.12
2023-02-07T10:27:36.610Z,3.05
2023-02-07T10:28:36.587Z,3.19
2023-02-07T10:29:36.678Z,3.21
2023-02-07T10:30:36.714Z,3.45
2023-02-07T10:31:36.599Z,3.45
2023-02-07T10:32:36.571Z,3.52
2023-02-07T10:33:36.546Z,3.52
2023-02-07T10:34:36.545Z,3.52
2023-02-07T10:35:36.541Z,3.63
2023-02-07T10:36:36.513Z,3.41
2023-02-07T10:37:36.534Z,3.22
2023-02-07T10:38:36.503Z,3.08
2023-02-07T10:39:36.493Z,3.11
2023-02-07T10:40:37.141Z,2.85
2023-02-07T10:41:36.458Z,2.72
2023-02-07T10:42:36.502Z,2.83
2023-02-07T10:43:36.454Z,2.90
2023-02-07T10:44:36.452Z,2.83
2023-02-07T10:45:36.441Z,3.00
2023-02-07T10:46:36.500Z,3.09
2023-02-07T10:47:36.416Z,3.09
2023-02-07T10:48:36.382Z,3.03
2023-02-07T10:49:36.434Z,2.79
2023-02-07T10:50:36.378Z,2.82
2023-02-07T10:51:36.384Z,2.91
2023-02-07T10:52:36.363Z,3.05
2023-02-07T10:53:42.973Z,3.12
2023-02-07T10:54:38.355Z,3.19
2023-02-07T10:55:36.349Z,3.37
2023-02-07T10:56:36.314Z,3.48
2023-02-07T10:57:36.303Z,3.52
2023-02-07T10:58:36.290Z,3.59
2023-02-07T10:59:36.301Z,3.67
2023-02-07T11:00:36.590Z,3.70
2023-02-07T11:01:37.896Z,3.76
2023-02-07T11:02:36.267Z,3.91
2023-02-07T11:03:36.235Z,3.82
2023-02-07T11:04:36.263Z,3.96
2023-02-07T11:05:36.446Z,3.92
2023-02-07T11:06:36.216Z,3.74
2023-02-07T11:07:47.197Z,3.67
2023-02-07T11:08:38.180Z,3.55
2023-02-07T11:09:36.197Z,3.56
2023-02-07T11:10:36.183Z,3.55
2023-02-07T11:11:36.156Z,3.41
2023-02-07T11:12:36.130Z,3.40
2023-02-07T11:13:36.172Z,3.48
2023-02-07T11:14:36.421Z,3.13
2023-02-07T11:15:37.427Z,3.16
2023-02-07T11:16:36.108Z,3.12
2023-02-07T11:17:36.122Z,3.24
2023-02-07T11:18:36.084Z,3.46
2023-02-07T11:19:36.083Z,3.22
2023-02-07T11:20:36.059Z,3.05
2023-02-07T11:21:36.047Z,3.00
2023-02-07T11:22:36.063Z,3.15
2023-02-07T11:23:36.033Z,3.15
2023-02-07T11:24:36.022Z,3.31
2023-02-07T11:25:36.057Z,3.24
2023-02-07T11:26:36.017Z,3.15
2023-02-07T11:27:36.002Z,3.00
2023-02-07T11:28:36.025Z,2.95
2023-02-07T11:29:35.979Z,3.01
2023-02-07T11:30:35.968Z,2.98
2023-02-07T11:31:35.995Z,3.16
2023-02-07T11:32:35.955Z,3.34
2023-02-07T11:33:35.943Z,3.52
2023-02-07T11:34:35.951Z,3.77
2023-02-07T11:35:35.933Z,3.95
2023-02-07T11:36:35.917Z,4.18
2023-02-07T11:37:35.902Z,4.25
2023-02-07T11:38:35.892Z,4.40
2023-02-07T11:39:35.876Z,4.45
2023-02-07T11:40:35.873Z,4.61
2023-02-07T11:41:35.858Z,4.57
2023-02-07T11:42:35.841Z,4.58
2023-02-07T11:43:35.845Z,4.70
2023-02-07T11:44:35.831Z,4.75
2023-02-07T11:45:35.824Z,4.94
2023-02-07T11:46:35.863Z,4.94
2023-02-07T11:47:35.803Z,5.12
2023-02-07T11:48:35.781Z,5.29
2023-02-07T11:49:35.777Z,5.26
2023-02-07T11:50:35.808Z,5.33
2023-02-07T11:51:35.758Z,5.37
2023-02-07T11:52:35.742Z,5.37
2023-02-07T11:53:35.737Z,5.25
2023-02-07T11:54:35.715Z,4.98
2023-02-07T11:55:35.759Z,4.74
2023-02-07T11:56:35.709Z,4.66
2023-02-07T11:57:35.697Z,4.49
2023-02-07T11:58:35.680Z,4.36
2023-02-07T11:59:35.665Z,4.00
2023-02-07T12:00:35.671Z,4.03
2023-02-07T12:01:35.685Z,4.28
2023-02-07T12:02:35.650Z,4.42
2023-02-07T12:03:35.630Z,4.60
2023-02-07T12:04:35.669Z,4.82
2023-02-07T12:05:35.622Z,4.94
2023-02-07T12:06:35.605Z,5.15
2023-02-07T12:07:35.593Z,5.22
2023-02-07T12:08:35.591Z,5.46
2023-02-07T12:09:35.583Z,5.65
2023-02-07T12:10:35.568Z,5.59
2023-02-07T12:11:35.557Z,5.46
2023-02-07T12:12:35.583Z,5.20
2023-02-07T12:13:35.558Z,5.18
2023-02-07T12:14:35.515Z,5.16
2023-02-07T12:15:35.557Z,5.23
2023-02-07T12:16:35.595Z,5.07
2023-02-07T12:17:35.499Z,4.66
2023-02-07T12:18:35.488Z,4.57
2023-02-07T12:19:36.471Z,4.52
2023-02-07T12:20:35.472Z,4.42
2023-02-07T12:21:35.460Z,4.53
2023-02-07T12:22:35.445Z,4.48
2023-02-07T12:23:42.306Z,4.43
2023-02-07T12:24:37.425Z,4.60
2023-02-07T12:25:35.417Z,4.58
2023-02-07T12:26:35.400Z,4.71
2023-02-07T12:28:07.385Z,4.89
2023-02-07T12:28:35.378Z,4.89
2023-02-07T12:29:35.357Z,5.04
2023-02-07T12:30:35.451Z,4.94
2023-02-07T12:31:35.521Z,4.74
2023-02-07T12:32:35.465Z,4.43
2023-02-07T12:33:35.342Z,4.21
2023-02-07T12:34:35.325Z,4.21
2023-02-07T12:35:36.490Z,4.27
2023-02-07T12:36:35.321Z,4.28
2023-02-07T12:37:35.290Z,4.28
2023-02-07T12:38:35.290Z,4.53
2023-02-07T12:39:35.279Z,4.86
2023-02-07T12:40:35.246Z,5.07
2023-02-07T12:41:35.243Z,5.37
2023-02-07T12:42:35.253Z,5.54
2023-02-07T12:43:35.240Z,5.70
2023-02-07T12:44:35.198Z,5.34
2023-02-07T12:45:35.230Z,5.33
2023-02-07T12:46:35.207Z,5.54
2023-02-07T12:47:35.178Z,5.46
2023-02-07T12:48:35.173Z,5.43
2023-02-07T12:49:35.144Z,5.37
2023-02-07T12:50:35.168Z,5.40
2023-02-07T12:51:35.136Z,5.28
2023-02-07T12:52:35.117Z,5.20
2023-02-07T12:53:35.118Z,5.37
2023-02-07T12:54:35.141Z,5.38
2023-02-07T12:55:35.073Z,5.04
2023-02-07T12:56:35.138Z,4.75
2023-02-07T12:57:35.868Z,4.84
2023-02-07T12:58:35.045Z,4.84
2023-02-07T12:59:35.053Z,4.76
2023-02-07T13:00:35.085Z,4.75
2023-02-07T13:01:35.045Z,4.89
2023-02-07T13:02:35.129Z,4.79
2023-02-07T13:03:35.062Z,4.89